createdAt,value
2023-02-05T00:00:56.285Z,-0.30
2023-02-05T00:03:22.963Z,-0.41
2023-02-05T00:05:49.576Z,-0.14
2023-02-05T00:08:16.133Z,0.08
2023-02-05T00:11:23.906Z,-0.19
2023-02-05T00:14:37.402Z,-0.07
2023-02-05T00:17:04.169Z,-0.35
2023-02-05T00:19:30.704Z,-0.20
2023-02-05T00:21:57.284Z,-0.18
2023-02-05T00:24:23.912Z,0.18
2023-02-05T00:26:50.535Z,-0.22
2023-02-05T00:29:17.087Z,-0.36
2023-02-05T00:31:43.831Z,-0.31
2023-02-05T00:34:10.558Z,-0.32
2023-02-05T00:36:37.093Z,-0.48
2023-02-05T00:39:03.784Z,-0.27
2023-02-05T00:41:30.360Z,-0.01
2023-02-05T00:43:56.910Z,-0.16
2023-02-05T00:46:23.538Z,-0.08
2023-02-05T00:48:50.112Z,-0.13
2023-02-05T00:51:16.671Z,-0.24
2023-02-05T00:53:43.251Z,-0.27
2023-02-05T00:56:15.119Z,-0.42
2023-02-05T00:58:47.376Z,-0.58
2023-02-05T01:01:41.822Z,-0.79
2023-02-05T01:04:22.134Z,-0.24
2023-02-05T01:06:48.751Z,-0.58
2023-02-05T01:09:15.314Z,-0.64
2023-02-05T01:11:41.922Z,-0.48
2023-02-05T01:14:12.757Z,-0.48
2023-02-05T02:00:07.287Z,-0.17
2023-02-05T02:02:36.632Z,-0.20
2023-02-05T02:05:10.266Z,-0.17
2023-02-05T02:07:37.118Z,-0.56
2023-02-05T02:10:04.866Z,-0.35
2023-02-05T02:15:49.311Z,-0.58
2023-02-05T02:18:26.968Z,-0.31
2023-02-05T02:21:27.771Z,-0.58
2023-02-05T02:24:32.017Z,-0.08
2023-02-05T02:26:58.494Z,-0.10
2023-02-05T02:29:50.680Z,-0.20
2023-02-05T02:32:55.014Z,-0.21
2023-02-05T02:35:36.655Z,-0.48
2023-02-05T02:38:22.457Z,-0.13
2023-02-05T02:40:53.134Z,-0.35
2023-02-05T02:43:30.617Z,-0.41
2023-02-05T02:46:17.832Z,-0.11
2023-02-05T02:48:47.908Z,-0.30
2023-02-05T02:51:18.393Z,-0.08
2023-02-05T02:53:49.331Z,-0.03
2023-02-05T02:56:19.286Z,-0.29
2023-02-05T02:58:50.681Z,-0.14
2023-02-05T03:01:22.795Z,0.20
2023-02-05T03:03:57.807Z,-0.36
2023-02-05T03:06:26.948Z,0.04
2023-02-05T03:08:59.850Z,0.03
2023-02-05T03:15:21.126Z,0.10
2023-02-05T03:17:47.888Z,-0.12
2023-02-05T03:20:22.480Z,-0.01
2023-02-05T03:22:49.051Z,-0.01
2023-02-05T03:25:30.697Z,-0.03
2023-02-05T03:27:58.498Z,0.13
2023-02-05T03:30:33.666Z,0.29
2023-02-05T03:33:20.605Z,0.25
2023-02-05T03:36:27.741Z,0.62
2023-02-05T03:39:13.022Z,0.74
2023-02-05T03:41:57.796Z,0.60
2023-02-05T03:45:03.162Z,0.54
2023-02-05T03:47:46.454Z,0.12
2023-02-05T03:50:20.565Z,0.45
2023-02-05T03:53:14.335Z,0.23
2023-02-05T03:56:33.768Z,0.79
2023-02-05T03:59:23.423Z,0.45
2023-02-05T04:01:50.574Z,0.86
2023-02-05T04:04:17.442Z,0.99
2023-02-05T04:06:47.070Z,0.88
2023-02-05T04:09:13.828Z,0.94
2023-02-05T04:11:40.519Z,0.97
2023-02-05T04:14:07.132Z,0.85
2023-02-05T04:16:33.903Z,1.03
2023-02-05T04:19:00.517Z,1.26
2023-02-05T04:21:27.560Z,1.41
2023-02-05T04:23:54.539Z,1.26
2023-02-05T04:26:21.154Z,0.87
2023-02-05T04:31:37.598Z,0.54
2023-02-05T04:34:04.428Z,0.73
2023-02-05T04:36:31.017Z,0.96
2023-02-05T04:39:16.304Z,0.52
2023-02-05T04:44:54.533Z,1.02
2023-02-05T04:47:21.326Z,0.87
2023-02-05T04:49:47.883Z,0.73
2023-02-05T04:52:14.463Z,0.76
2023-02-05T04:54:41.029Z,0.92
2023-02-05T04:57:10.539Z,0.89
2023-02-05T04:59:37.166Z,0.61
2023-02-05T05:02:03.864Z,0.84
2023-02-05T05:04:30.416Z,1.17
2023-02-05T05:06:56.996Z,0.79
2023-02-05T05:09:25.106Z,0.64
2023-02-05T05:11:52.723Z,0.56
2023-02-05T05:14:19.818Z,0.52
2023-02-05T05:16:46.661Z,0.73
2023-02-05T05:19:13.205Z,0.71
2023-02-05T05:21:39.839Z,0.54
2023-02-05T05:24:06.828Z,0.68
2023-02-05T05:26:33.874Z,0.75
2023-02-05T05:29:00.522Z,0.87
2023-02-05T05:31:27.088Z,0.68
2023-02-05T05:33:53.781Z,0.69
2023-02-05T05:36:20.342Z,0.96
2023-02-05T05:38:46.894Z,0.98
2023-02-05T05:41:42.694Z,0.66
2023-02-05T05:44:09.915Z,0.97
2023-02-05T05:46:36.965Z,1.19
2023-02-05T05:49:03.879Z,0.79
2023-02-05T05:51:31.090Z,0.85
2023-02-05T05:53:57.760Z,1.02
2023-02-05T05:56:24.379Z,0.44
2023-02-05T06:01:39.398Z,1.12
2023-02-05T06:04:06.167Z,1.18
2023-02-05T06:06:33.128Z,1.02
2023-02-05T06:08:59.754Z,0.93
2023-02-05T06:11:26.308Z,1.11
2023-02-05T06:14:35.941Z,0.68
2023-02-05T06:17:33.905Z,0.84
2023-02-05T06:20:12.907Z,0.93
2023-02-05T06:22:40.164Z,1.02
2023-02-05T06:25:07.612Z,0.98
2023-02-05T06:27:35.162Z,0.72
2023-02-05T06:30:16.899Z,0.95
2023-02-05T06:32:43.465Z,0.93
2023-02-05T06:35:10.063Z,1.11
2023-02-05T06:37:47.024Z,1.06
2023-02-05T06:40:17.955Z,0.83
2023-02-05T06:42:45.419Z,0.96
2023-02-05T06:45:12.110Z,0.96
2023-02-05T06:47:38.887Z,0.67
2023-02-05T06:50:06.903Z,0.95
2023-02-05T06:52:33.720Z,1.19
2023-02-05T06:55:00.302Z,1.18
2023-02-05T06:57:26.873Z,1.32
2023-02-05T06:59:53.473Z,1.28
2023-02-05T07:02:20.140Z,1.08
2023-02-05T07:04:46.809Z,1.10
2023-02-05T07:07:13.710Z,1.29
2023-02-05T07:09:40.271Z,1.37
2023-02-05T07:12:07.330Z,1.42
2023-02-05T07:14:41.457Z,1.60
2023-02-05T07:17:08.944Z,1.63
2023-02-05T07:19:36.585Z,0.90
2023-02-05T07:22:04.197Z,1.00
2023-02-05T07:24:31.440Z,1.04
2023-02-05T07:26:58.001Z,1.26
2023-02-05T07:29:24.580Z,1.52
2023-02-05T07:31:52.341Z,1.12
2023-02-05T07:34:20.975Z,1.39
2023-02-05T07:36:51.113Z,0.91
2023-02-05T07:39:18.665Z,1.11
2023-02-05T07:41:45.249Z,1.19
2023-02-05T07:44:12.360Z,1.26
2023-02-05T07:46:38.958Z,1.62
2023-02-05T07:49:05.522Z,1.46
2023-02-05T07:51:32.999Z,1.48
2023-02-05T07:54:09.383Z,1.27
2023-02-05T07:56:36.367Z,1.50
2023-02-05T07:59:03.072Z,1.38
2023-02-05T08:01:29.686Z,1.54
2023-02-05T08:03:56.302Z,1.71
2023-02-05T08:06:22.913Z,1.51
2023-02-05T08:08:49.610Z,1.57
2023-02-05T08:11:17.287Z,1.51
2023-02-05T08:13:45.034Z,1.06
2023-02-05T08:16:12.810Z,1.19
2023-02-05T08:18:39.402Z,1.25
2023-02-05T08:21:05.974Z,1.38
2023-02-05T08:23:32.632Z,1.12
2023-02-05T08:26:00.382Z,0.81
2023-02-05T08:28:28.892Z,0.76
2023-02-05T08:30:56.762Z,0.86
2023-02-05T08:33:23.645Z,1.57
2023-02-05T08:35:50.241Z,2.04
2023-02-05T08:38:16.852Z,1.40
2023-02-05T08:40:43.894Z,1.50
2023-02-05T08:43:10.518Z,0.47
2023-02-05T08:45:37.570Z,0.43
2023-02-05T08:48:04.440Z,0.79
2023-02-05T08:50:30.998Z,0.54
2023-02-05T08:52:57.645Z,0.05
2023-02-05T08:55:24.252Z,0.03
2023-02-05T08:57:51.191Z,0.40
2023-02-05T09:00:18.248Z,0.56
2023-02-05T09:02:44.878Z,0.55
2023-02-05T09:05:11.611Z,0.82
2023-02-05T09:07:39.554Z,0.94
2023-02-05T09:10:09.091Z,0.71
2023-02-05T09:12:35.883Z,0.34
2023-02-05T09:15:02.439Z,0.59
2023-02-05T09:17:29.018Z,0.48
2023-02-05T09:19:55.726Z,1.54
2023-02-05T09:22:22.276Z,1.78
2023-02-05T09:24:48.872Z,1.18
2023-02-05T09:27:15.477Z,1.12
2023-02-05T09:29:42.111Z,1.32
2023-02-05T09:32:08.702Z,2.42
2023-02-05T09:34:35.602Z,2.30
2023-02-05T09:37:02.282Z,2.64
2023-02-05T09:40:17.309Z,2.57
2023-02-05T09:42:45.326Z,2.86
2023-02-05T09:45:37.318Z,3.33
2023-02-05T09:48:29.361Z,3.35
2023-02-05T09:50:58.121Z,3.33
2023-02-05T09:53:33.165Z,3.27
2023-02-05T09:56:02.194Z,2.59
2023-02-05T09:58:33.119Z,3.07
2023-02-05T10:01:03.870Z,3.01
2023-02-05T10:03:50.164Z,2.66
2023-02-05T10:06:16.659Z,2.37
2023-02-05T10:09:02.396Z,2.41
2023-02-05T10:11:45.229Z,2.22
2023-02-05T10:14:22.540Z,2.40
2023-02-05T10:17:29.340Z,2.90
2023-02-05T10:20:17.527Z,3.26
2023-02-05T10:22:53.813Z,3.19
2023-02-05T10:25:36.255Z,2.78
2023-02-05T10:31:37.185Z,1.82
2023-02-05T10:34:32.075Z,1.85
2023-02-05T10:37:02.805Z,2.67
2023-02-05T10:39:30.413Z,2.80
2023-02-05T10:42:03.071Z,2.65
2023-02-05T10:44:58.741Z,2.44
2023-02-05T10:48:26.375Z,3.11
2023-02-05T10:50:56.169Z,2.39
2023-02-05T10:53:24.804Z,3.37
2023-02-05T10:55:58.511Z,3.28
2023-02-05T10:59:02.355Z,3.67
2023-02-05T11:01:38.143Z,3.77
2023-02-05T11:04:14.150Z,3.98
2023-02-05T11:06:48.549Z,3.63
2023-02-05T11:09:24.297Z,3.22
2023-02-05T11:11:59.708Z,3.85
2023-02-05T11:14:37.702Z,3.89
2023-02-05T11:17:15.009Z,3.75
2023-02-05T11:19:41.643Z,3.55
2023-02-05T11:22:33.068Z,2.86
2023-02-05T11:25:31.577Z,3.27
2023-02-05T11:28:42.512Z,3.48
2023-02-05T11:31:47.872Z,3.39
2023-02-05T11:34:19.939Z,3.47
2023-02-05T11:36:55.165Z,3.52
2023-02-05T11:39:37.778Z,3.36
2023-02-05T11:42:25.937Z,3.79
2023-02-05T11:44:58.639Z,3.89
2023-02-05T11:47:40.377Z,3.96
2023-02-05T11:50:22.536Z,4.10
2023-02-05T11:52:50.256Z,4.32
2023-02-05T11:55:44.498Z,3.63
2023-02-05T11:58:42.651Z,3.39
2023-02-05T12:01:31.216Z,3.83
2023-02-05T12:04:06.756Z,3.87
2023-02-05T12:06:39.962Z,4.22
2023-02-05T12:09:06.695Z,4.33
2023-02-05T12:12:16.853Z,3.91
2023-02-05T12:14:50.376Z,3.55
2023-02-05T12:17:22.257Z,3.97
2023-02-05T12:19:55.307Z,4.00
2023-02-05T12:22:30.784Z,3.86
2023-02-05T12:25:09.401Z,3.41
2023-02-05T12:28:16.031Z,3.59
2023-02-05T12:31:01.583Z,3.83
2023-02-05T12:33:50.066Z,3.93
2023-02-05T12:36:29.762Z,3.57
2023-02-05T12:39:14.273Z,3.97
2023-02-05T12:41:56.939Z,3.65
2023-02-05T12:44:42.765Z,3.74
2023-02-05T12:47:34.882Z,4.03
2023-02-05T12:50:22.850Z,3.59
2023-02-05T12:53:17.007Z,3.29
2023-02-05T12:56:22.546Z,3.41
2023-02-05T12:59:12.677Z,3.24
2023-02-05T13:01:49.025Z,3.40
2023-02-05T13:04:22.138Z,3.08
2023-02-05T13:06:57.820Z,3.36
2023-02-05T13:09:45.476Z,3.29
2023-02-05T13:12:16.483Z,3.41
2023-02-05T13:14:56.523Z,3.76
2023-02-05T13:17:29.216Z,3.86
2023-02-05T13:20:04.415Z,3.50
2023-02-05T13:22:57.583Z,3.31
2023-02-05T13:26:00.266Z,3.04
2023-02-05T13:28:40.215Z,3.45
2023-02-05T13:31:24.290Z,3.73
2023-02-05T13:33:53.376Z,3.66
2023-02-05T13:36:28.920Z,3.83
2023-02-05T13:39:34.446Z,4.02
2023-02-05T13:42:31.579Z,3.88
2023-02-05T13:45:36.147Z,3.67
2023-02-05T13:48:21.655Z,3.78
2023-02-05T13:50:54.205Z,3.51
2023-02-05T13:53:32.482Z,3.55
2023-02-05T13:55:58.969Z,3.22
2023-02-05T13:58:47.945Z,3.32
2023-02-05T14:01:31.920Z,3.11
2023-02-05T14:04:08.425Z,3.28
2023-02-05T14:06:40.554Z,2.72
2023-02-05T14:09:20.946Z,3.40
2023-02-05T14:11:55.964Z,3.66
2023-02-05T14:14:22.466Z,2.76
2023-02-05T14:16:51.010Z,3.28
2023-02-05T14:19:22.110Z,3.56
2023-02-05T14:21:56.884Z,3.01
2023-02-05T14:24:39.077Z,3.34
2023-02-05T14:27:20.669Z,3.61
2023-02-05T14:30:38.232Z,2.88
2023-02-05T14:33:26.702Z,3.51
2023-02-05T14:36:22.925Z,3.15
2023-02-05T14:39:27.453Z,2.88
2023-02-05T14:41:59.039Z,3.32
2023-02-05T14:44:42.463Z,3.61
2023-02-05T14:47:28.576Z,3.51
2023-02-05T14:50:11.245Z,3.57
2023-02-05T14:52:46.295Z,3.13
2023-02-05T14:55:12.786Z,3.41
2023-02-05T15:03:39.954Z,2.52
2023-02-05T15:06:15.516Z,2.89
2023-02-05T15:16:27.875Z,2.83
2023-02-05T15:18:59.125Z,2.97
2023-02-05T15:21:33.519Z,3.00
2023-02-05T15:24:13.904Z,2.18
2023-02-05T15:27:02.771Z,2.73
2023-02-05T15:29:46.120Z,2.76
2023-02-05T15:32:18.878Z,2.73
2023-02-05T15:34:48.173Z,2.92
2023-02-05T15:37:29.857Z,2.90
2023-02-05T15:39:59.529Z,2.47
2023-02-05T15:42:39.833Z,2.84
2023-02-05T15:45:18.765Z,2.99
2023-02-05T15:47:45.562Z,2.98
2023-02-05T15:50:15.564Z,2.88
2023-02-05T15:52:42.376Z,2.92
2023-02-05T15:55:13.358Z,2.76
2023-02-05T15:57:40.094Z,2.63
2023-02-05T16:00:09.994Z,2.65
2023-02-05T16:02:36.877Z,2.56
2023-02-05T16:05:17.941Z,2.56
2023-02-05T16:07:47.541Z,2.26
2023-02-05T16:10:23.774Z,2.31
2023-02-05T16:13:07.049Z,2.20
2023-02-05T16:15:40.559Z,2.18
2023-02-05T16:18:15.836Z,1.94
2023-02-05T16:20:49.853Z,1.70
2023-02-05T16:23:45.647Z,1.71
2023-02-05T16:26:26.479Z,2.01
2023-02-05T16:29:02.369Z,1.71
2023-02-05T16:31:30.824Z,1.80
2023-02-05T16:34:04.805Z,1.68
2023-02-05T16:36:43.591Z,1.67
2023-02-05T16:39:27.488Z,1.54
2023-02-05T16:42:06.545Z,1.59
2023-02-05T16:44:37.272Z,1.57
2023-02-05T16:47:16.417Z,1.52
2023-02-05T16:49:45.256Z,1.41
2023-02-05T16:52:33.330Z,1.55
2023-02-05T16:55:25.610Z,1.53
2023-02-05T16:57:53.208Z,1.42
2023-02-05T17:00:23.594Z,1.45
2023-02-05T17:02:55.459Z,1.48
2023-02-05T17:05:28.233Z,1.46
2023-02-05T17:07:57.242Z,1.13
2023-02-05T17:10:24.858Z,1.39
2023-02-05T17:13:01.678Z,1.31
2023-02-05T17:15:36.717Z,1.54
2023-02-05T17:18:28.908Z,1.48
2023-02-05T17:21:31.124Z,1.42
2023-02-05T17:23:59.716Z,1.38
2023-02-05T17:26:37.652Z,1.40
2023-02-05T17:29:07.270Z,1.19
2023-02-05T17:31:38.589Z,1.27
2023-02-05T17:34:05.633Z,1.17
2023-02-05T17:36:32.859Z,1.25
2023-02-05T17:38:59.439Z,1.30
2023-02-05T17:41:48.516Z,1.02
2023-02-05T17:44:16.687Z,1.25
2023-02-05T17:46:44.566Z,1.25
2023-02-05T17:49:11.241Z,1.20
2023-02-05T17:51:42.533Z,1.28
2023-02-05T17:54:15.393Z,1.39
2023-02-05T17:56:44.454Z,1.38
2023-02-05T17:59:17.090Z,1.36
2023-02-05T18:01:44.056Z,0.23
2023-02-05T18:04:11.907Z,0.17
2023-02-05T18:06:39.530Z,-0.10
2023-02-05T18:09:06.609Z,-0.04
2023-02-05T18:11:33.676Z,-0.43
2023-02-05T18:14:00.470Z,-0.07
2023-02-05T18:16:27.513Z,-0.47
2023-02-05T18:18:54.187Z,0.12
2023-02-05T18:21:21.747Z,0.15
2023-02-05T18:23:52.824Z,0.08
2023-02-05T18:26:20.014Z,0.30
2023-02-05T18:28:46.862Z,0.00
2023-02-05T18:31:14.878Z,-0.14
2023-02-05T18:33:42.312Z,-0.06
2023-02-05T18:36:12.344Z,0.32
2023-02-05T18:38:40.185Z,0.34
2023-02-05T18:41:12.560Z,0.60
2023-02-05T18:43:39.527Z,0.68
2023-02-05T18:46:08.241Z,0.68
2023-02-05T18:48:35.000Z,0.61
2023-02-05T18:51:09.929Z,0.61
2023-02-05T18:53:38.984Z,0.66
2023-02-05T18:56:09.801Z,0.68
2023-02-05T18:58:36.712Z,0.71
2023-02-05T19:01:15.193Z,0.62
2023-02-05T19:03:42.819Z,0.69
2023-02-05T19:06:12.613Z,0.64
2023-02-05T19:08:39.761Z,0.46
2023-02-05T19:11:25.756Z,0.35
2023-02-05T19:25:37.614Z,0.27
2023-02-05T19:32:41.638Z,0.38
2023-02-05T19:51:49.910Z,0.37
2023-02-05T19:54:18.941Z,0.22
2023-02-05T19:56:47.003Z,0.10
2023-02-05T20:00:00.109Z,0.03
2023-02-05T20:03:12.319Z,0.19
2023-02-05T20:05:39.138Z,0.07
2023-02-05T20:08:09.632Z,0.06
2023-02-05T20:10:36.432Z,-0.05
2023-02-05T20:13:03.368Z,0.04
2023-02-05T20:15:32.127Z,-0.08
2023-02-05T20:17:58.723Z,-0.27
2023-02-05T20:20:33.534Z,-0.17
2023-02-05T20:23:00.610Z,-0.17
2023-02-05T20:25:27.161Z,-0.10
2023-02-05T20:27:53.786Z,-0.22
2023-02-05T20:30:39.134Z,-0.07
2023-02-05T20:33:05.716Z,-0.01
2023-02-05T20:35:35.440Z,-0.14
2023-02-05T20:38:02.000Z,-0.18
2023-02-05T20:40:28.615Z,-0.36
2023-02-05T20:42:55.222Z,-0.32
2023-02-05T20:45:21.799Z,-0.28
2023-02-05T20:47:48.355Z,-0.29
2023-02-05T20:50:15.149Z,-0.36
2023-02-05T20:52:41.739Z,-0.34
2023-02-05T20:55:08.541Z,-0.22
2023-02-05T20:57:35.340Z,-0.18
2023-02-05T21:00:02.036Z,-0.20
2023-02-05T21:02:28.651Z,-0.33
2023-02-05T21:04:55.211Z,-0.60
2023-02-05T21:07:27.023Z,-0.47
2023-02-05T21:09:54.764Z,-0.37
2023-02-05T21:12:21.465Z,-0.78
2023-02-05T21:14:48.072Z,-0.76
2023-02-05T21:55:08.800Z,-1.78
2023-02-05T21:57:37.829Z,-1.67
2023-02-05T22:00:04.779Z,-1.84
2023-02-05T22:02:31.373Z,-1.63
2023-02-05T22:04:57.941Z,-1.58
2023-02-05T22:08:03.363Z,-1.74
2023-02-05T22:11:19.860Z,-1.77
2023-02-05T22:14:05.605Z,-1.76
2023-02-05T22:16:33.619Z,-1.79
2023-02-05T22:19:01.407Z,-2.07
2023-02-05T22:21:34.788Z,-1.73
2023-02-05T22:24:02.826Z,-1.70
2023-02-05T22:29:25.083Z,-1.64
2023-02-05T22:31:54.136Z,-1.64
2023-02-05T22:39:31.574Z,-1.30
2023-02-05T22:42:22.312Z,-1.64
2023-02-05T22:45:16.999Z,-2.13
2023-02-05T22:48:08.639Z,-1.85
2023-02-05T22:50:41.604Z,-2.14
2023-02-05T22:53:08.652Z,-1.94
2023-02-05T22:55:36.827Z,-1.67
2023-02-05T22:58:04.494Z,-1.62
2023-02-05T23:00:32.332Z,-1.76
2023-02-05T23:03:23.301Z,-2.03
2023-02-05T23:05:50.777Z,-2.36
2023-02-05T23:08:17.386Z,-2.00
2023-02-05T23:10:43.946Z,-2.09
2023-02-05T23:14:00.327Z,-2.25
2023-02-05T23:16:49.093Z,-2.62
2023-02-05T23:19:22.259Z,-2.78
2023-02-05T23:21:49.450Z,-2.53
2023-02-05T23:24:17.284Z,-2.84
2023-02-05T23:26:46.676Z,-2.79
2023-02-05T23:29:15.103Z,-2.74
